Maysville, Kentucky
Current Conditions -  °F | °C
As of 12:15 AM on Saturday 29 Nov 2014 (Local Time) from KFGX Reporting Station
Clear Clear  
Wind Chill: 26°   Ceiling: Unl
Heat Index: 31°   Visibility: 10mi
Dew Point: 20°   Wind: 5mph
Humidity: 63%   Direction: 130°SE
Pressure: 30.12"   Gusts: NA
Location:  38.64°N, 83.76°W
Report Text: KFGX 290515Z AUTO 13004KT 10SM CLR M01/M07 A3012 RMK AO2 T10061069
Loading
Personal Weather Stations






























Interactive Weather Map New forecast layout! Learn more

10-Day Weather Forecast

Advertisements
Track Severe Weather on mobile